KCSQ

Creston Municipal Airport

Creston, Iowa, USA
METAR KCSQ 241955Z AUTO 21006KT 1/2SM -UP OVC003 00/00 A2972 RMK AO2 P0002
Observed Flight Rules
Feb-24 @ 19:55 UTC (20 minutes ago) Instrument Flight Rules
Wind Visibility Clouds Conditions
210° at 6 knots 1/2 miles
  • Overcast at 300' AGL
  • Unknown precipitation
Temperatures Readings Precipitation
Current 0°C / 32°F
Dewpoint 0°C / 32°F
Humidity 100%
Altimeter 29.72" Hg
Pressure 1006 hPa
Elevation 394
Current Rain 0.02
METAR KCSQ 241955Z AUTO 21006KT 1/2SM -UP OVC003 00/00 A2972 RMK AO2 P0002
Observed Flight Rules
Feb-24 @ 19:55 UTC
(20 minutes ago)
LIFR
Wind Visibility
210° at 6 knots 1/2 miles
Clouds
  • Overcast at 300' AGL
Conditions
  • Unknown precipitation
Temperature Dewpoint
0°C / 32°F 0°C / 32°F
Humidity Altimeter Pressure
100% 29.72" Hg 1006 hPa
Current Rain
0.02